sensor_id;sensor_type;location;lat;lon;timestamp;P1;durP1;ratioP1;P2;durP2;ratioP2
25481;SDS011;13395;50.752;4.268;2023-07-13T00:01:43;4.65;;;1.85;;
25481;SDS011;13395;50.752;4.268;2023-07-13T00:04:11;10.70;;;2.28;;
25481;SDS011;13395;50.752;4.268;2023-07-13T00:06:39;9.45;;;2.35;;
25481;SDS011;13395;50.752;4.268;2023-07-13T00:09:05;7.03;;;1.92;;
25481;SDS011;13395;50.752;4.268;2023-07-13T00:11:31;8.57;;;2.05;;
25481;SDS011;13395;50.752;4.268;2023-07-13T00:13:57;12.57;;;2.00;;
25481;SDS011;13395;50.752;4.268;2023-07-13T00:16:23;10.52;;;2.00;;
25481;SDS011;13395;50.752;4.268;2023-07-13T00:18:48;7.07;;;2.00;;
25481;SDS011;13395;50.752;4.268;2023-07-13T00:21:14;6.35;;;2.00;;
25481;SDS011;13395;50.752;4.268;2023-07-13T00:23:41;7.95;;;1.70;;
25481;SDS011;13395;50.752;4.268;2023-07-13T00:26:07;6.72;;;2.17;;
25481;SDS011;13395;50.752;4.268;2023-07-13T00:28:35;9.50;;;1.77;;
25481;SDS011;13395;50.752;4.268;2023-07-13T00:31:01;10.85;;;2.05;;
25481;SDS011;13395;50.752;4.268;2023-07-13T00:33:27;12.05;;;2.45;;
25481;SDS011;13395;50.752;4.268;2023-07-13T00:35:57;14.02;;;2.42;;
25481;SDS011;13395;50.752;4.268;2023-07-13T00:38:23;8.45;;;2.10;;
25481;SDS011;13395;50.752;4.268;2023-07-13T00:40:49;10.05;;;2.22;;
25481;SDS011;13395;50.752;4.268;2023-07-13T00:43:16;11.23;;;2.08;;
25481;SDS011;13395;50.752;4.268;2023-07-13T00:48:15;8.15;;;2.50;;
25481;SDS011;13395;50.752;4.268;2023-07-13T00:50:53;12.23;;;2.53;;
25481;SDS011;13395;50.752;4.268;2023-07-13T00:53:22;11.13;;;2.20;;
25481;SDS011;13395;50.752;4.268;2023-07-13T00:55:49;11.32;;;2.00;;
25481;SDS011;13395;50.752;4.268;2023-07-13T00:58:16;10.63;;;2.75;;
25481;SDS011;13395;50.752;4.268;2023-07-13T01:00:42;10.40;;;2.60;;
25481;SDS011;13395;50.752;4.268;2023-07-13T01:03:08;8.18;;;2.15;;
25481;SDS011;13395;50.752;4.268;2023-07-13T01:05:35;12.98;;;2.45;;
25481;SDS011;13395;50.752;4.268;2023-07-13T01:08:02;8.65;;;2.17;;
25481;SDS011;13395;50.752;4.268;2023-07-13T01:10:30;6.68;;;2.50;;
25481;SDS011;13395;50.752;4.268;2023-07-13T01:13:04;10.77;;;2.67;;
25481;SDS011;13395;50.752;4.268;2023-07-13T01:18:07;13.82;;;2.30;;
25481;SDS011;13395;50.752;4.268;2023-07-13T01:20:36;10.35;;;2.63;;
25481;SDS011;13395;50.752;4.268;2023-07-13T01:23:04;17.70;;;3.33;;
25481;SDS011;13395;50.752;4.268;2023-07-13T01:25:31;8.27;;;2.83;;
25481;SDS011;13395;50.752;4.268;2023-07-13T01:27:57;9.88;;;2.63;;
25481;SDS011;13395;50.752;4.268;2023-07-13T01:30:23;13.48;;;4.10;;
25481;SDS011;13395;50.752;4.268;2023-07-13T01:32:49;10.77;;;3.47;;
25481;SDS011;13395;50.752;4.268;2023-07-13T01:35:15;9.40;;;2.67;;
25481;SDS011;13395;50.752;4.268;2023-07-13T01:37:41;13.32;;;2.88;;
25481;SDS011;13395;50.752;4.268;2023-07-13T01:40:10;8.52;;;2.67;;
25481;SDS011;13395;50.752;4.268;2023-07-13T01:42:37;10.02;;;2.40;;
25481;SDS011;13395;50.752;4.268;2023-07-13T01:45:03;9.60;;;3.03;;
25481;SDS011;13395;50.752;4.268;2023-07-13T01:47:31;11.02;;;2.60;;
25481;SDS011;13395;50.752;4.268;2023-07-13T01:49:57;11.25;;;2.80;;
25481;SDS011;13395;50.752;4.268;2023-07-13T01:52:23;11.98;;;2.53;;
25481;SDS011;13395;50.752;4.268;2023-07-13T01:54:49;14.70;;;2.85;;
25481;SDS011;13395;50.752;4.268;2023-07-13T01:57:14;10.35;;;2.85;;
25481;SDS011;13395;50.752;4.268;2023-07-13T01:59:40;9.38;;;2.78;;
25481;SDS011;13395;50.752;4.268;2023-07-13T02:02:06;12.13;;;2.65;;
25481;SDS011;13395;50.752;4.268;2023-07-13T02:04:32;10.75;;;2.95;;
25481;SDS011;13395;50.752;4.268;2023-07-13T02:06:58;14.15;;;3.22;;
25481;SDS011;13395;50.752;4.268;2023-07-13T02:09:23;12.70;;;2.50;;
25481;SDS011;13395;50.752;4.268;2023-07-13T02:11:49;15.00;;;2.72;;
25481;SDS011;13395;50.752;4.268;2023-07-13T02:14:15;9.98;;;2.95;;
25481;SDS011;13395;50.752;4.268;2023-07-13T02:16:41;8.68;;;2.38;;
25481;SDS011;13395;50.752;4.268;2023-07-13T02:19:07;19.52;;;3.13;;
25481;SDS011;13395;50.752;4.268;2023-07-13T02:21:33;16.38;;;2.70;;
25481;SDS011;13395;50.752;4.268;2023-07-13T02:23:59;10.18;;;2.80;;
25481;SDS011;13395;50.752;4.268;2023-07-13T02:26:25;11.25;;;2.20;;
25481;SDS011;13395;50.752;4.268;2023-07-13T02:28:51;11.27;;;2.72;;
25481;SDS011;13395;50.752;4.268;2023-07-13T02:31:17;16.33;;;3.50;;
25481;SDS011;13395;50.752;4.268;2023-07-13T02:33:43;12.32;;;3.22;;
25481;SDS011;13395;50.752;4.268;2023-07-13T02:36:09;12.05;;;3.83;;
25481;SDS011;13395;50.752;4.268;2023-07-13T02:38:36;20.55;;;4.22;;
25481;SDS011;13395;50.752;4.268;2023-07-13T02:41:05;17.33;;;3.85;;
25481;SDS011;13395;50.752;4.268;2023-07-13T02:43:32;13.52;;;3.05;;
25481;SDS011;13395;50.752;4.268;2023-07-13T02:45:59;9.90;;;3.25;;
25481;SDS011;13395;50.752;4.268;2023-07-13T02:48:29;11.88;;;3.35;;
25481;SDS011;13395;50.752;4.268;2023-07-13T02:50:55;9.70;;;2.88;;
25481;SDS011;13395;50.752;4.268;2023-07-13T02:53:20;13.35;;;3.72;;
25481;SDS011;13395;50.752;4.268;2023-07-13T02:55:46;11.13;;;3.10;;
25481;SDS011;13395;50.752;4.268;2023-07-13T02:58:12;13.93;;;3.15;;
25481;SDS011;13395;50.752;4.268;2023-07-13T03:00:42;8.00;;;3.28;;
25481;SDS011;13395;50.752;4.268;2023-07-13T03:03:09;15.82;;;3.10;;
25481;SDS011;13395;50.752;4.268;2023-07-13T03:05:36;11.77;;;2.60;;
25481;SDS011;13395;50.752;4.268;2023-07-13T03:08:03;17.98;;;2.95;;
25481;SDS011;13395;50.752;4.268;2023-07-13T03:10:29;14.13;;;3.75;;
25481;SDS011;13395;50.752;4.268;2023-07-13T03:12:54;12.65;;;3.22;;
25481;SDS011;13395;50.752;4.268;2023-07-13T03:15:20;11.32;;;3.33;;
25481;SDS011;13395;50.752;4.268;2023-07-13T03:17:46;13.13;;;2.90;;
25481;SDS011;13395;50.752;4.268;2023-07-13T03:20:12;15.02;;;3.28;;
25481;SDS011;13395;50.752;4.268;2023-07-13T03:22:37;9.77;;;3.83;;
25481;SDS011;13395;50.752;4.268;2023-07-13T03:25:03;12.32;;;3.38;;
25481;SDS011;13395;50.752;4.268;2023-07-13T03:27:29;11.00;;;2.42;;
25481;SDS011;13395;50.752;4.268;2023-07-13T03:29:55;11.82;;;3.22;;
25481;SDS011;13395;50.752;4.268;2023-07-13T03:32:21;13.05;;;3.00;;
25481;SDS011;13395;50.752;4.268;2023-07-13T03:34:47;14.40;;;3.00;;
25481;SDS011;13395;50.752;4.268;2023-07-13T03:37:13;14.25;;;3.20;;
25481;SDS011;13395;50.752;4.268;2023-07-13T03:39:38;13.65;;;3.60;;
25481;SDS011;13395;50.752;4.268;2023-07-13T03:42:04;17.48;;;4.35;;
25481;SDS011;13395;50.752;4.268;2023-07-13T03:44:30;10.02;;;3.17;;
25481;SDS011;13395;50.752;4.268;2023-07-13T03:46:56;12.02;;;3.15;;
25481;SDS011;13395;50.752;4.268;2023-07-13T03:49:22;14.18;;;3.33;;
25481;SDS011;13395;50.752;4.268;2023-07-13T03:51:47;15.68;;;4.22;;
25481;SDS011;13395;50.752;4.268;2023-07-13T03:54:13;14.80;;;3.70;;
25481;SDS011;13395;50.752;4.268;2023-07-13T03:56:39;13.10;;;2.70;;
25481;SDS011;13395;50.752;4.268;2023-07-13T03:59:04;14.55;;;3.60;;
25481;SDS011;13395;50.752;4.268;2023-07-13T04:01:30;14.10;;;3.65;;
25481;SDS011;13395;50.752;4.268;2023-07-13T04:03:56;15.52;;;4.05;;
25481;SDS011;13395;50.752;4.268;2023-07-13T04:06:23;13.43;;;3.45;;
25481;SDS011;13395;50.752;4.268;2023-07-13T04:08:53;9.95;;;3.17;;
25481;SDS011;13395;50.752;4.268;2023-07-13T04:11:22;12.15;;;3.15;;
25481;SDS011;13395;50.752;4.268;2023-07-13T04:13:49;12.38;;;3.95;;
25481;SDS011;13395;50.752;4.268;2023-07-13T04:16:16;11.25;;;3.08;;
25481;SDS011;13395;50.752;4.268;2023-07-13T04:18:43;25.17;;;3.58;;
25481;SDS011;13395;50.752;4.268;2023-07-13T04:21:09;10.73;;;3.50;;
25481;SDS011;13395;50.752;4.268;2023-07-13T04:23:36;10.30;;;2.78;;
25481;SDS011;13395;50.752;4.268;2023-07-13T04:26:02;11.32;;;3.50;;
25481;SDS011;13395;50.752;4.268;2023-07-13T04:28:28;14.90;;;3.35;;
25481;SDS011;13395;50.752;4.268;2023-07-13T04:30:53;12.35;;;3.60;;
25481;SDS011;13395;50.752;4.268;2023-07-13T04:33:20;8.48;;;3.88;;
25481;SDS011;13395;50.752;4.268;2023-07-13T04:35:47;13.50;;;3.95;;
25481;SDS011;13395;50.752;4.268;2023-07-13T04:38:15;17.10;;;4.25;;
25481;SDS011;13395;50.752;4.268;2023-07-13T04:40:50;14.70;;;3.28;;
25481;SDS011;13395;50.752;4.268;2023-07-13T04:43:17;12.10;;;3.50;;
25481;SDS011;13395;50.752;4.268;2023-07-13T04:45:43;15.68;;;3.75;;
25481;SDS011;13395;50.752;4.268;2023-07-13T04:48:08;16.23;;;3.60;;
25481;SDS011;13395;50.752;4.268;2023-07-13T04:50:37;8.88;;;3.00;;
25481;SDS011;13395;50.752;4.268;2023-07-13T04:53:03;16.13;;;3.42;;
25481;SDS011;13395;50.752;4.268;2023-07-13T04:55:29;19.35;;;3.80;;
25481;SDS011;13395;50.752;4.268;2023-07-13T04:57:55;20.30;;;3.33;;
25481;SDS011;13395;50.752;4.268;2023-07-13T05:00:23;11.07;;;3.15;;
25481;SDS011;13395;50.752;4.268;2023-07-13T05:02:50;12.75;;;3.22;;
25481;SDS011;13395;50.752;4.268;2023-07-13T05:05:16;10.45;;;3.60;;
25481;SDS011;13395;50.752;4.268;2023-07-13T05:07:42;11.85;;;2.83;;
25481;SDS011;13395;50.752;4.268;2023-07-13T05:10:08;17.75;;;3.25;;
25481;SDS011;13395;50.752;4.268;2023-07-13T05:12:35;12.43;;;3.95;;
25481;SDS011;13395;50.752;4.268;2023-07-13T05:15:01;13.90;;;3.80;;
25481;SDS011;13395;50.752;4.268;2023-07-13T05:17:28;15.60;;;3.28;;
25481;SDS011;13395;50.752;4.268;2023-07-13T05:19:53;12.00;;;3.55;;
25481;SDS011;13395;50.752;4.268;2023-07-13T05:22:20;10.73;;;2.60;;
25481;SDS011;13395;50.752;4.268;2023-07-13T05:24:46;10.93;;;3.33;;
25481;SDS011;13395;50.752;4.268;2023-07-13T05:27:12;10.88;;;2.70;;
25481;SDS011;13395;50.752;4.268;2023-07-13T05:29:37;10.18;;;2.45;;
25481;SDS011;13395;50.752;4.268;2023-07-13T05:32:03;17.65;;;3.35;;
25481;SDS011;13395;50.752;4.268;2023-07-13T05:34:29;14.00;;;3.28;;
25481;SDS011;13395;50.752;4.268;2023-07-13T05:36:55;17.55;;;3.20;;
25481;SDS011;13395;50.752;4.268;2023-07-13T05:39:21;6.50;;;3.03;;
25481;SDS011;13395;50.752;4.268;2023-07-13T05:41:46;15.00;;;3.15;;
25481;SDS011;13395;50.752;4.268;2023-07-13T05:44:12;14.85;;;3.72;;
25481;SDS011;13395;50.752;4.268;2023-07-13T05:46:38;15.93;;;3.72;;
25481;SDS011;13395;50.752;4.268;2023-07-13T05:49:03;11.68;;;2.85;;
25481;SDS011;13395;50.752;4.268;2023-07-13T05:51:29;13.95;;;2.92;;
25481;SDS011;13395;50.752;4.268;2023-07-13T05:53:55;13.43;;;3.63;;
25481;SDS011;13395;50.752;4.268;2023-07-13T05:56:20;17.75;;;3.13;;
25481;SDS011;13395;50.752;4.268;2023-07-13T05:58:47;10.35;;;3.00;;
25481;SDS011;13395;50.752;4.268;2023-07-13T06:01:14;9.27;;;2.78;;
25481;SDS011;13395;50.752;4.268;2023-07-13T06:03:41;14.95;;;3.72;;
25481;SDS011;13395;50.752;4.268;2023-07-13T06:06:07;10.13;;;2.63;;
25481;SDS011;13395;50.752;4.268;2023-07-13T06:08:34;15.35;;;3.97;;
25481;SDS011;13395;50.752;4.268;2023-07-13T06:11:02;15.43;;;3.63;;
25481;SDS011;13395;50.752;4.268;2023-07-13T06:13:32;13.82;;;3.38;;
25481;SDS011;13395;50.752;4.268;2023-07-13T06:15:58;14.88;;;4.10;;
25481;SDS011;13395;50.752;4.268;2023-07-13T06:18:25;11.32;;;3.42;;
25481;SDS011;13395;50.752;4.268;2023-07-13T06:20:50;10.07;;;2.97;;
25481;SDS011;13395;50.752;4.268;2023-07-13T06:23:16;9.55;;;2.97;;
25481;SDS011;13395;50.752;4.268;2023-07-13T06:25:42;18.60;;;3.83;;
25481;SDS011;13395;50.752;4.268;2023-07-13T06:28:08;8.90;;;3.10;;
25481;SDS011;13395;50.752;4.268;2023-07-13T06:30:34;15.00;;;3.40;;
25481;SDS011;13395;50.752;4.268;2023-07-13T06:32:59;12.65;;;3.10;;
25481;SDS011;13395;50.752;4.268;2023-07-13T06:35:25;25.60;;;4.57;;
25481;SDS011;13395;50.752;4.268;2023-07-13T06:37:51;11.75;;;3.47;;
25481;SDS011;13395;50.752;4.268;2023-07-13T06:40:16;14.88;;;3.35;;
25481;SDS011;13395;50.752;4.268;2023-07-13T06:42:42;12.30;;;3.35;;
25481;SDS011;13395;50.752;4.268;2023-07-13T06:45:08;11.05;;;3.10;;
25481;SDS011;13395;50.752;4.268;2023-07-13T06:47:34;10.35;;;3.65;;
25481;SDS011;13395;50.752;4.268;2023-07-13T06:50:00;17.25;;;3.72;;
25481;SDS011;13395;50.752;4.268;2023-07-13T06:52:26;10.90;;;3.30;;
25481;SDS011;13395;50.752;4.268;2023-07-13T06:54:51;18.45;;;2.83;;
25481;SDS011;13395;50.752;4.268;2023-07-13T06:57:17;17.48;;;4.35;;
25481;SDS011;13395;50.752;4.268;2023-07-13T06:59:43;15.55;;;3.65;;
25481;SDS011;13395;50.752;4.268;2023-07-13T07:02:09;17.20;;;3.92;;
25481;SDS011;13395;50.752;4.268;2023-07-13T07:04:35;14.65;;;3.10;;
25481;SDS011;13395;50.752;4.268;2023-07-13T07:07:01;9.15;;;2.63;;
25481;SDS011;13395;50.752;4.268;2023-07-13T07:09:27;8.38;;;3.45;;
25481;SDS011;13395;50.752;4.268;2023-07-13T07:11:55;18.90;;;3.28;;
25481;SDS011;13395;50.752;4.268;2023-07-13T07:14:20;16.20;;;3.35;;
25481;SDS011;13395;50.752;4.268;2023-07-13T07:16:46;11.13;;;3.50;;
25481;SDS011;13395;50.752;4.268;2023-07-13T07:19:12;11.82;;;3.50;;
25481;SDS011;13395;50.752;4.268;2023-07-13T07:21:38;10.27;;;3.05;;
25481;SDS011;13395;50.752;4.268;2023-07-13T07:24:04;13.50;;;3.38;;
25481;SDS011;13395;50.752;4.268;2023-07-13T07:26:30;11.05;;;2.85;;
25481;SDS011;13395;50.752;4.268;2023-07-13T07:28:56;8.60;;;2.83;;
25481;SDS011;13395;50.752;4.268;2023-07-13T07:31:21;11.43;;;3.00;;
25481;SDS011;13395;50.752;4.268;2023-07-13T07:33:47;13.70;;;3.55;;
25481;SDS011;13395;50.752;4.268;2023-07-13T07:36:14;11.15;;;2.60;;
25481;SDS011;13395;50.752;4.268;2023-07-13T07:38:41;8.93;;;2.65;;
25481;SDS011;13395;50.752;4.268;2023-07-13T07:41:07;10.23;;;2.47;;
25481;SDS011;13395;50.752;4.268;2023-07-13T07:43:33;10.30;;;2.70;;
25481;SDS011;13395;50.752;4.268;2023-07-13T07:45:58;8.27;;;2.42;;
25481;SDS011;13395;50.752;4.268;2023-07-13T07:48:24;10.25;;;2.38;;
25481;SDS011;13395;50.752;4.268;2023-07-13T07:50:50;11.00;;;2.03;;
25481;SDS011;13395;50.752;4.268;2023-07-13T07:53:16;7.32;;;2.50;;
25481;SDS011;13395;50.752;4.268;2023-07-13T07:55:42;6.32;;;2.38;;
25481;SDS011;13395;50.752;4.268;2023-07-13T07:58:08;8.15;;;2.55;;
25481;SDS011;13395;50.752;4.268;2023-07-13T08:00:34;10.10;;;2.10;;
25481;SDS011;13395;50.752;4.268;2023-07-13T08:03:00;10.07;;;2.63;;
25481;SDS011;13395;50.752;4.268;2023-07-13T08:05:27;5.57;;;1.75;;
25481;SDS011;13395;50.752;4.268;2023-07-13T08:07:53;6.28;;;2.25;;
25481;SDS011;13395;50.752;4.268;2023-07-13T08:10:19;9.43;;;2.45;;
25481;SDS011;13395;50.752;4.268;2023-07-13T08:12:45;4.97;;;2.42;;
25481;SDS011;13395;50.752;4.268;2023-07-13T08:15:12;12.85;;;2.33;;
25481;SDS011;13395;50.752;4.268;2023-07-13T08:17:40;5.82;;;2.03;;
25481;SDS011;13395;50.752;4.268;2023-07-13T08:20:06;9.65;;;2.90;;
25481;SDS011;13395;50.752;4.268;2023-07-13T08:22:33;9.60;;;3.13;;
25481;SDS011;13395;50.752;4.268;2023-07-13T08:25:00;7.10;;;2.10;;
25481;SDS011;13395;50.752;4.268;2023-07-13T08:27:27;9.07;;;1.95;;
25481;SDS011;13395;50.752;4.268;2023-07-13T08:29:53;8.00;;;2.30;;
25481;SDS011;13395;50.752;4.268;2023-07-13T08:32:20;9.00;;;2.05;;
25481;SDS011;13395;50.752;4.268;2023-07-13T08:34:46;6.90;;;2.08;;
25481;SDS011;13395;50.752;4.268;2023-07-13T08:37:13;8.27;;;1.98;;
25481;SDS011;13395;50.752;4.268;2023-07-13T08:39:39;9.45;;;2.20;;
25481;SDS011;13395;50.752;4.268;2023-07-13T08:42:06;7.75;;;2.88;;
25481;SDS011;13395;50.752;4.268;2023-07-13T08:47:36;11.88;;;2.22;;
25481;SDS011;13395;50.752;4.268;2023-07-13T08:50:09;10.02;;;2.63;;
25481;SDS011;13395;50.752;4.268;2023-07-13T08:52:46;8.93;;;1.83;;
25481;SDS011;13395;50.752;4.268;2023-07-13T08:57:46;7.47;;;2.25;;
25481;SDS011;13395;50.752;4.268;2023-07-13T09:00:18;6.20;;;2.03;;
25481;SDS011;13395;50.752;4.268;2023-07-13T09:02:57;7.75;;;2.50;;
25481;SDS011;13395;50.752;4.268;2023-07-13T09:10:44;8.63;;;2.23;;
25481;SDS011;13395;50.752;4.268;2023-07-13T09:15:46;5.90;;;1.80;;
25481;SDS011;13395;50.752;4.268;2023-07-13T09:21:21;9.48;;;1.90;;
25481;SDS011;13395;50.752;4.268;2023-07-13T09:23:48;7.70;;;2.20;;
25481;SDS011;13395;50.752;4.268;2023-07-13T09:26:19;5.68;;;1.75;;
25481;SDS011;13395;50.752;4.268;2023-07-13T09:29:03;7.47;;;1.60;;
25481;SDS011;13395;50.752;4.268;2023-07-13T09:31:44;5.80;;;2.00;;
25481;SDS011;13395;50.752;4.268;2023-07-13T09:34:17;11.60;;;2.80;;
25481;SDS011;13395;50.752;4.268;2023-07-13T09:36:42;9.57;;;2.25;;
25481;SDS011;13395;50.752;4.268;2023-07-13T09:42:01;6.63;;;1.73;;
25481;SDS011;13395;50.752;4.268;2023-07-13T09:44:43;7.70;;;1.88;;
25481;SDS011;13395;50.752;4.268;2023-07-13T09:47:16;6.85;;;1.85;;
25481;SDS011;13395;50.752;4.268;2023-07-13T09:49:55;5.38;;;1.73;;
25481;SDS011;13395;50.752;4.268;2023-07-13T09:52:26;5.28;;;1.58;;
25481;SDS011;13395;50.752;4.268;2023-07-13T09:54:53;7.15;;;1.60;;
25481;SDS011;13395;50.752;4.268;2023-07-13T09:57:24;4.25;;;1.38;;
25481;SDS011;13395;50.752;4.268;2023-07-13T09:59:52;4.75;;;1.90;;
25481;SDS011;13395;50.752;4.268;2023-07-13T10:05:02;6.97;;;2.42;;
25481;SDS011;13395;50.752;4.268;2023-07-13T10:07:28;6.20;;;1.90;;
25481;SDS011;13395;50.752;4.268;2023-07-13T10:09:55;10.77;;;1.83;;
25481;SDS011;13395;50.752;4.268;2023-07-13T10:12:23;5.90;;;1.75;;
25481;SDS011;13395;50.752;4.268;2023-07-13T10:14:57;7.72;;;1.88;;
25481;SDS011;13395;50.752;4.268;2023-07-13T10:17:32;8.18;;;2.05;;
25481;SDS011;13395;50.752;4.268;2023-07-13T10:20:02;5.77;;;1.93;;
25481;SDS011;13395;50.752;4.268;2023-07-13T10:22:38;6.57;;;1.63;;
25481;SDS011;13395;50.752;4.268;2023-07-13T10:25:19;5.38;;;1.60;;
25481;SDS011;13395;50.752;4.268;2023-07-13T10:27:51;6.68;;;1.70;;
25481;SDS011;13395;50.752;4.268;2023-07-13T10:32:48;8.30;;;1.73;;
25481;SDS011;13395;50.752;4.268;2023-07-13T10:35:15;6.65;;;1.50;;
25481;SDS011;13395;50.752;4.268;2023-07-13T10:37:45;7.03;;;1.23;;
25481;SDS011;13395;50.752;4.268;2023-07-13T10:40:26;6.50;;;1.92;;
25481;SDS011;13395;50.752;4.268;2023-07-13T10:42:58;6.20;;;1.92;;
25481;SDS011;13395;50.752;4.268;2023-07-13T10:45:27;5.07;;;1.45;;
25481;SDS011;13395;50.752;4.268;2023-07-13T10:47:55;5.22;;;2.00;;
25481;SDS011;13395;50.752;4.268;2023-07-13T10:50:22;6.78;;;1.60;;
25481;SDS011;13395;50.752;4.268;2023-07-13T10:52:51;8.02;;;2.00;;
25481;SDS011;13395;50.752;4.268;2023-07-13T10:58:40;4.72;;;1.73;;
25481;SDS011;13395;50.752;4.268;2023-07-13T11:03:20;5.00;;;1.80;;
25481;SDS011;13395;50.752;4.268;2023-07-13T11:05:48;2.55;;;1.10;;
25481;SDS011;13395;50.752;4.268;2023-07-13T11:08:20;4.88;;;1.40;;
25481;SDS011;13395;50.752;4.268;2023-07-13T11:10:57;5.05;;;1.45;;
25481;SDS011;13395;50.752;4.268;2023-07-13T11:16:14;4.18;;;1.50;;
25481;SDS011;13395;50.752;4.268;2023-07-13T11:19:23;6.93;;;1.23;;
25481;SDS011;13395;50.752;4.268;2023-07-13T11:22:02;4.97;;;1.90;;
25481;SDS011;13395;50.752;4.268;2023-07-13T11:29:53;4.55;;;1.40;;
25481;SDS011;13395;50.752;4.268;2023-07-13T11:36:00;6.20;;;1.40;;
25481;SDS011;13395;50.752;4.268;2023-07-13T11:38:32;6.38;;;1.63;;
25481;SDS011;13395;50.752;4.268;2023-07-13T11:41:10;3.25;;;1.20;;
25481;SDS011;13395;50.752;4.268;2023-07-13T11:43:42;3.63;;;1.20;;
25481;SDS011;13395;50.752;4.268;2023-07-13T11:46:12;3.55;;;1.33;;
25481;SDS011;13395;50.752;4.268;2023-07-13T11:48:39;5.65;;;1.30;;
25481;SDS011;13395;50.752;4.268;2023-07-13T11:51:06;12.15;;;1.77;;
25481;SDS011;13395;50.752;4.268;2023-07-13T11:53:43;5.05;;;1.30;;
25481;SDS011;13395;50.752;4.268;2023-07-13T11:56:10;6.20;;;1.50;;
25481;SDS011;13395;50.752;4.268;2023-07-13T11:58:37;8.45;;;1.40;;
25481;SDS011;13395;50.752;4.268;2023-07-13T12:01:03;3.10;;;1.58;;
25481;SDS011;13395;50.752;4.268;2023-07-13T12:03:30;5.25;;;1.58;;
25481;SDS011;13395;50.752;4.268;2023-07-13T12:08:30;4.20;;;1.77;;
25481;SDS011;13395;50.752;4.268;2023-07-13T12:11:05;8.23;;;1.45;;
25481;SDS011;13395;50.752;4.268;2023-07-13T12:13:40;2.90;;;1.00;;
25481;SDS011;13395;50.752;4.268;2023-07-13T12:16:13;7.40;;;1.13;;
25481;SDS011;13395;50.752;4.268;2023-07-13T12:18:49;1.88;;;0.90;;
25481;SDS011;13395;50.752;4.268;2023-07-13T12:21:18;2.55;;;1.27;;
25481;SDS011;13395;50.752;4.268;2023-07-13T12:23:47;3.28;;;1.00;;
25481;SDS011;13395;50.752;4.268;2023-07-13T12:26:14;3.20;;;1.10;;
25481;SDS011;13395;50.752;4.268;2023-07-13T12:28:51;2.55;;;1.15;;
25481;SDS011;13395;50.752;4.268;2023-07-13T12:36:37;6.82;;;1.40;;
25481;SDS011;13395;50.752;4.268;2023-07-13T12:39:15;3.78;;;1.92;;
25481;SDS011;13395;50.752;4.268;2023-07-13T12:41:44;6.72;;;2.33;;
25481;SDS011;13395;50.752;4.268;2023-07-13T12:44:14;4.47;;;1.50;;
25481;SDS011;13395;50.752;4.268;2023-07-13T12:46:52;3.80;;;1.30;;
25481;SDS011;13395;50.752;4.268;2023-07-13T12:49:25;6.90;;;1.73;;
25481;SDS011;13395;50.752;4.268;2023-07-13T12:51:57;3.45;;;1.40;;
25481;SDS011;13395;50.752;4.268;2023-07-13T12:54:24;5.00;;;1.27;;
25481;SDS011;13395;50.752;4.268;2023-07-13T12:56:52;2.90;;;1.17;;
25481;SDS011;13395;50.752;4.268;2023-07-13T12:59:20;4.97;;;1.65;;
25481;SDS011;13395;50.752;4.268;2023-07-13T13:01:47;4.88;;;1.02;;
25481;SDS011;13395;50.752;4.268;2023-07-13T13:04:14;7.07;;;1.35;;
25481;SDS011;13395;50.752;4.268;2023-07-13T13:06:41;4.32;;;1.48;;
25481;SDS011;13395;50.752;4.268;2023-07-13T13:09:11;5.88;;;1.20;;
25481;SDS011;13395;50.752;4.268;2023-07-13T13:11:38;5.40;;;1.48;;
25481;SDS011;13395;50.752;4.268;2023-07-13T13:14:05;6.28;;;1.67;;
25481;SDS011;13395;50.752;4.268;2023-07-13T13:16:33;9.73;;;1.40;;
25481;SDS011;13395;50.752;4.268;2023-07-13T13:22:07;3.65;;;1.10;;
25481;SDS011;13395;50.752;4.268;2023-07-13T13:24:34;4.63;;;1.45;;
25481;SDS011;13395;50.752;4.268;2023-07-13T13:27:00;10.85;;;1.80;;
25481;SDS011;13395;50.752;4.268;2023-07-13T13:29:27;6.30;;;1.88;;
25481;SDS011;13395;50.752;4.268;2023-07-13T13:31:53;5.20;;;1.50;;
25481;SDS011;13395;50.752;4.268;2023-07-13T13:34:20;6.03;;;1.30;;
25481;SDS011;13395;50.752;4.268;2023-07-13T13:36:49;1.65;;;1.20;;
25481;SDS011;13395;50.752;4.268;2023-07-13T13:41:48;4.72;;;1.40;;
25481;SDS011;13395;50.752;4.268;2023-07-13T13:44:15;4.15;;;1.40;;
25481;SDS011;13395;50.752;4.268;2023-07-13T13:46:44;2.67;;;1.15;;
25481;SDS011;13395;50.752;4.268;2023-07-13T13:49:13;3.30;;;0.98;;
25481;SDS011;13395;50.752;4.268;2023-07-13T13:51:41;4.35;;;1.63;;
25481;SDS011;13395;50.752;4.268;2023-07-13T13:54:10;3.05;;;1.40;;
25481;SDS011;13395;50.752;4.268;2023-07-13T13:56:41;5.32;;;1.40;;
25481;SDS011;13395;50.752;4.268;2023-07-13T13:59:08;4.40;;;1.42;;
25481;SDS011;13395;50.752;4.268;2023-07-13T14:01:34;3.47;;;1.05;;
25481;SDS011;13395;50.752;4.268;2023-07-13T14:04:00;3.38;;;1.17;;
25481;SDS011;13395;50.752;4.268;2023-07-13T14:06:25;5.25;;;1.50;;
25481;SDS011;13395;50.752;4.268;2023-07-13T14:08:52;6.43;;;1.30;;
25481;SDS011;13395;50.752;4.268;2023-07-13T14:11:20;4.32;;;1.70;;
25481;SDS011;13395;50.752;4.268;2023-07-13T14:13:57;3.25;;;1.20;;
25481;SDS011;13395;50.752;4.268;2023-07-13T14:16:28;15.43;;;1.52;;
25481;SDS011;13395;50.752;4.268;2023-07-13T14:18:59;5.20;;;1.83;;
25481;SDS011;13395;50.752;4.268;2023-07-13T14:21:27;5.60;;;1.42;;
25481;SDS011;13395;50.752;4.268;2023-07-13T14:23:54;6.18;;;1.83;;
25481;SDS011;13395;50.752;4.268;2023-07-13T14:26:20;5.43;;;1.35;;
25481;SDS011;13395;50.752;4.268;2023-07-13T14:28:52;4.70;;;1.90;;
25481;SDS011;13395;50.752;4.268;2023-07-13T14:31:20;7.93;;;1.65;;
25481;SDS011;13395;50.752;4.268;2023-07-13T14:33:48;5.32;;;2.00;;
25481;SDS011;13395;50.752;4.268;2023-07-13T14:36:21;2.90;;;1.55;;
25481;SDS011;13395;50.752;4.268;2023-07-13T14:38:55;4.05;;;1.83;;
25481;SDS011;13395;50.752;4.268;2023-07-13T14:41:25;4.38;;;1.83;;
25481;SDS011;13395;50.752;4.268;2023-07-13T14:43:52;7.63;;;2.05;;
25481;SDS011;13395;50.752;4.268;2023-07-13T14:46:31;5.82;;;1.80;;
25481;SDS011;13395;50.752;4.268;2023-07-13T14:49:45;5.28;;;2.03;;
25481;SDS011;13395;50.752;4.268;2023-07-13T14:51:57;4.03;;;1.92;;
25481;SDS011;13395;50.752;4.268;2023-07-13T14:54:25;3.28;;;1.90;;
25481;SDS011;13395;50.752;4.268;2023-07-13T14:56:51;6.50;;;2.00;;
25481;SDS011;13395;50.752;4.268;2023-07-13T14:59:17;5.63;;;2.20;;
25481;SDS011;13395;50.752;4.268;2023-07-13T15:01:45;9.18;;;2.58;;
25481;SDS011;13395;50.752;4.268;2023-07-13T15:04:13;6.57;;;1.70;;
25481;SDS011;13395;50.752;4.268;2023-07-13T15:06:58;7.10;;;2.00;;
25481;SDS011;13395;50.752;4.268;2023-07-13T15:09:27;4.38;;;2.03;;
25481;SDS011;13395;50.752;4.268;2023-07-13T15:11:54;7.88;;;2.08;;
25481;SDS011;13395;50.752;4.268;2023-07-13T15:14:21;3.72;;;1.73;;
25481;SDS011;13395;50.752;4.268;2023-07-13T15:16:49;5.20;;;1.40;;
25481;SDS011;13395;50.752;4.268;2023-07-13T15:19:17;2.80;;;1.30;;
25481;SDS011;13395;50.752;4.268;2023-07-13T15:21:43;4.22;;;1.55;;
25481;SDS011;13395;50.752;4.268;2023-07-13T15:24:10;3.28;;;1.40;;
25481;SDS011;13395;50.752;4.268;2023-07-13T15:26:35;2.83;;;1.25;;
25481;SDS011;13395;50.752;4.268;2023-07-13T15:29:03;3.28;;;1.90;;
25481;SDS011;13395;50.752;4.268;2023-07-13T15:31:29;7.75;;;1.50;;
25481;SDS011;13395;50.752;4.268;2023-07-13T15:33:57;4.05;;;1.50;;
25481;SDS011;13395;50.752;4.268;2023-07-13T15:36:24;4.85;;;1.33;;
25481;SDS011;13395;50.752;4.268;2023-07-13T15:38:54;2.92;;;1.33;;
25481;SDS011;13395;50.752;4.268;2023-07-13T15:41:22;3.53;;;1.10;;
25481;SDS011;13395;50.752;4.268;2023-07-13T15:43:50;3.13;;;1.30;;
25481;SDS011;13395;50.752;4.268;2023-07-13T15:46:18;3.58;;;1.40;;